Time;durP1;ratioP1;P1;durP2;ratioP2;P2;SDS_P1;SDS_P2;PMS_P1;PMS_P2;Temp;Humidity;BMP_temperature;BMP_pressure;BME280_temperature;BME280_humidity;BME280_pressure;Samples;Min_cycle;Max_cycle;Signal;HPM_P1;HPM_P2
2023/12/31 00:00:32;;;;;;;5.25;2.40;;;8.10;99.90;;;;;;5084850;28;20063;-45
2023/12/31 00:02:58;;;;;;;4.85;2.60;;;8.00;99.90;;;;;;5089059;28;20130;-47
2023/12/31 00:05:24;;;;;;;4.18;2.75;;;8.00;99.90;;;;;;5090080;28;20136;-46
2023/12/31 00:07:49;;;;;;;2.70;2.50;;;8.00;99.90;;;;;;5086220;28;20032;-44
2023/12/31 00:10:17;;;;;;;5.50;2.60;;;8.00;99.90;;;;;;5084636;28;20032;-45
2023/12/31 00:12:43;;;;;;;3.47;2.58;;;7.90;99.90;;;;;;5084754;28;20048;-45
2023/12/31 00:15:09;;;;;;;4.72;2.70;;;8.00;99.90;;;;;;5086570;28;20040;-46
2023/12/31 00:17:34;;;;;;;4.18;2.60;;;7.90;99.90;;;;;;5083633;28;20089;-44
2023/12/31 00:20:00;;;;;;;6.90;3.10;;;7.90;99.90;;;;;;5084806;28;20032;-45
2023/12/31 00:22:26;;;;;;;4.45;3.10;;;8.00;99.90;;;;;;5083576;28;20052;-45
2023/12/31 00:24:54;;;;;;;3.65;2.92;;;7.90;99.90;;;;;;5083798;28;20040;-45
2023/12/31 00:27:20;;;;;;;4.22;3.08;;;7.90;99.90;;;;;;5083531;28;20047;-46
2023/12/31 00:29:46;;;;;;;5.55;2.97;;;7.80;99.90;;;;;;5084349;28;20054;-45
2023/12/31 00:32:12;;;;;;;5.35;2.92;;;7.80;99.90;;;;;;5081571;28;20417;-45
2023/12/31 00:34:37;;;;;;;5.25;3.05;;;7.80;99.90;;;;;;5082368;28;20051;-45
2023/12/31 00:37:03;;;;;;;4.43;2.45;;;7.70;99.90;;;;;;5084012;28;20122;-46
2023/12/31 00:39:29;;;;;;;4.50;2.75;;;7.80;99.90;;;;;;5083225;28;20397;-46
2023/12/31 00:41:55;;;;;;;5.03;3.10;;;7.70;99.90;;;;;;5079611;28;20044;-45
2023/12/31 00:44:21;;;;;;;4.85;3.00;;;7.70;99.90;;;;;;5080575;28;20043;-45
2023/12/31 00:46:46;;;;;;;4.05;3.10;;;7.80;99.90;;;;;;5084004;28;20040;-45
2023/12/31 00:49:12;;;;;;;4.90;3.00;;;7.70;99.90;;;;;;5084492;28;20035;-48
2023/12/31 00:51:38;;;;;;;4.55;3.00;;;7.80;99.90;;;;;;5083667;28;20044;-46
2023/12/31 00:54:04;;;;;;;4.22;3.13;;;7.90;99.90;;;;;;5082547;28;20040;-45
2023/12/31 00:56:29;;;;;;;5.75;3.22;;;7.90;99.90;;;;;;5084536;28;20406;-45
2023/12/31 00:58:55;;;;;;;6.65;3.30;;;7.90;99.90;;;;;;5083115;28;20079;-45
2023/12/31 01:01:21;;;;;;;3.22;2.90;;;8.00;99.90;;;;;;5088097;28;20465;-45
2023/12/31 01:03:47;;;;;;;4.22;3.00;;;8.00;99.90;;;;;;5082641;28;20044;-45
2023/12/31 01:06:13;;;;;;;4.43;3.10;;;7.90;99.90;;;;;;5090101;28;20044;-47
2023/12/31 01:08:38;;;;;;;4.22;3.20;;;8.00;99.90;;;;;;5067169;28;20048;-46
2023/12/31 01:11:04;;;;;;;3.17;2.88;;;8.00;99.90;;;;;;5083775;28;20101;-46
2023/12/31 01:13:31;;;;;;;4.38;3.03;;;8.00;99.90;;;;;;5083555;28;20054;-47
2023/12/31 01:15:56;;;;;;;5.15;3.17;;;8.00;99.90;;;;;;5087637;28;20067;-46
2023/12/31 01:18:22;;;;;;;5.35;3.20;;;8.00;99.90;;;;;;5089642;28;20490;-44
2023/12/31 01:20:48;;;;;;;4.22;3.28;;;7.90;99.90;;;;;;5087798;28;20032;-44
2023/12/31 01:23:14;;;;;;;4.70;3.05;;;7.90;99.90;;;;;;5088013;28;20101;-45
2023/12/31 01:25:40;;;;;;;3.45;2.70;;;7.90;99.90;;;;;;5083693;28;20036;-44
2023/12/31 01:28:05;;;;;;;4.63;2.95;;;7.90;99.90;;;;;;5087269;28;20055;-44
2023/12/31 01:30:31;;;;;;;4.15;2.80;;;7.80;99.90;;;;;;5084788;28;20421;-44
2023/12/31 01:32:57;;;;;;;3.70;2.95;;;7.80;99.90;;;;;;5089138;28;20044;-45
2023/12/31 01:35:22;;;;;;;5.28;2.95;;;7.70;99.90;;;;;;5089020;28;20082;-44
2023/12/31 01:37:48;;;;;;;4.07;3.40;;;7.70;99.90;;;;;;5083050;28;20032;-44
2023/12/31 01:40:14;;;;;;;4.15;2.90;;;7.70;99.90;;;;;;5073622;28;20063;-45
2023/12/31 01:42:39;;;;;;;3.15;2.50;;;7.70;99.90;;;;;;5089892;28;20044;-45
2023/12/31 01:45:05;;;;;;;3.92;2.63;;;7.70;99.90;;;;;;5086621;28;20466;-45
2023/12/31 01:47:32;;;;;;;5.82;2.35;;;7.80;99.90;;;;;;5089491;28;20413;-45
2023/12/31 01:49:59;;;;;;;3.00;2.42;;;7.80;99.90;;;;;;5093350;28;20913;-46
2023/12/31 01:52:25;;;;;;;2.55;2.10;;;7.80;99.90;;;;;;5093564;28;20044;-45
2023/12/31 01:54:54;;;;;;;2.88;2.00;;;7.80;99.90;;;;;;5089922;28;20477;-45
2023/12/31 01:57:25;;;;;;;4.43;1.67;;;7.90;99.90;;;;;;5094429;28;20382;-45
2023/12/31 01:59:52;;;;;;;3.30;1.90;;;7.90;99.90;;;;;;5090556;28;20083;-45
2023/12/31 02:02:19;;;;;;;2.70;1.85;;;8.00;99.90;;;;;;5093814;28;20088;-45
2023/12/31 02:04:45;;;;;;;4.20;1.92;;;8.10;99.90;;;;;;5087818;28;20048;-45
2023/12/31 02:07:10;;;;;;;3.28;2.00;;;8.10;99.90;;;;;;5092482;28;20040;-46
2023/12/31 02:09:36;;;;;;;2.55;1.75;;;8.20;99.90;;;;;;5097111;28;20044;-48
2023/12/31 02:12:02;;;;;;;3.50;2.10;;;8.30;99.90;;;;;;5090395;28;20028;-47
2023/12/31 02:14:28;;;;;;;2.25;1.90;;;8.30;99.90;;;;;;5094330;28;20119;-45
2023/12/31 02:16:53;;;;;;;4.15;1.80;;;8.40;99.90;;;;;;5089392;28;20201;-49
2023/12/31 02:19:19;;;;;;;2.10;1.52;;;8.30;99.90;;;;;;5073504;28;20040;-47
2023/12/31 02:21:45;;;;;;;2.58;1.60;;;8.30;99.90;;;;;;5092236;28;20051;-46
2023/12/31 02:24:16;;;;;;;1.85;1.52;;;8.30;99.90;;;;;;5089142;28;20036;-47
2023/12/31 02:26:42;;;;;;;2.10;1.50;;;8.30;99.90;;;;;;5089502;28;20040;-46
2023/12/31 02:29:07;;;;;;;2.50;1.50;;;8.20;99.90;;;;;;5089892;28;20043;-48
2023/12/31 02:31:35;;;;;;;2.22;1.45;;;8.20;99.90;;;;;;5091648;28;20048;-49
2023/12/31 02:34:00;;;;;;;1.63;1.50;;;8.10;99.90;;;;;;5072622;28;20464;-46
2023/12/31 02:36:26;;;;;;;1.30;1.20;;;8.10;99.90;;;;;;5090057;28;20128;-46
2023/12/31 02:38:51;;;;;;;2.45;1.30;;;8.10;99.90;;;;;;5074760;28;20470;-44
2023/12/31 02:41:17;;;;;;;2.30;1.48;;;8.10;99.90;;;;;;5088556;28;20105;-46
2023/12/31 02:43:43;;;;;;;2.33;1.30;;;8.10;99.90;;;;;;5091129;28;20055;-45
2023/12/31 02:46:08;;;;;;;3.08;1.40;;;8.10;99.90;;;;;;5092354;28;20048;-45
2023/12/31 02:48:35;;;;;;;3.05;1.40;;;8.00;99.90;;;;;;5091279;28;20040;-45
2023/12/31 02:51:00;;;;;;;2.97;1.60;;;8.00;99.90;;;;;;5073643;28;20040;-48
2023/12/31 02:53:26;;;;;;;1.65;1.55;;;8.00;99.90;;;;;;5090797;28;20122;-45
2023/12/31 02:55:51;;;;;;;2.08;1.38;;;8.00;99.90;;;;;;5090867;28;20032;-45
2023/12/31 02:58:17;;;;;;;1.48;1.30;;;8.00;99.90;;;;;;5088871;28;20047;-44
2023/12/31 03:00:43;;;;;;;2.65;1.50;;;8.10;99.90;;;;;;5090165;28;20123;-46
2023/12/31 03:03:08;;;;;;;2.10;1.70;;;8.00;99.90;;;;;;5086919;28;20195;-45
2023/12/31 03:05:34;;;;;;;2.15;1.60;;;8.00;99.90;;;;;;5091071;28;20139;-45
2023/12/31 03:08:00;;;;;;;3.22;1.65;;;8.00;99.90;;;;;;5088159;28;20182;-45
2023/12/31 03:10:26;;;;;;;3.60;1.75;;;8.00;99.90;;;;;;5093133;28;20540;-45
2023/12/31 03:12:52;;;;;;;2.72;1.77;;;8.10;99.90;;;;;;5089518;28;20501;-46
2023/12/31 03:15:19;;;;;;;2.05;1.60;;;8.00;99.90;;;;;;5095847;28;20040;-48
2023/12/31 03:17:45;;;;;;;2.92;1.50;;;8.00;99.90;;;;;;5089284;28;20143;-45
2023/12/31 03:20:10;;;;;;;2.28;1.58;;;8.00;99.90;;;;;;5090615;28;20405;-44
2023/12/31 03:22:37;;;;;;;2.15;1.48;;;8.00;99.90;;;;;;5087251;28;20119;-46
2023/12/31 03:25:03;;;;;;;3.13;1.48;;;8.00;99.90;;;;;;5086971;28;20382;-46
2023/12/31 03:27:28;;;;;;;4.80;1.83;;;8.00;99.90;;;;;;5084737;28;20584;-46
2023/12/31 03:29:54;;;;;;;2.00;1.50;;;8.00;99.90;;;;;;5087822;28;20075;-47
2023/12/31 03:32:19;;;;;;;3.20;1.52;;;8.00;99.90;;;;;;5086817;28;20500;-46
2023/12/31 03:34:45;;;;;;;3.85;1.90;;;8.00;99.90;;;;;;5073485;28;20185;-45
2023/12/31 03:37:11;;;;;;;2.15;1.52;;;8.00;99.90;;;;;;5088677;28;20034;-45
2023/12/31 03:39:36;;;;;;;2.88;1.90;;;8.00;99.90;;;;;;5080163;28;20135;-46
2023/12/31 03:42:02;;;;;;;2.92;1.80;;;8.00;99.90;;;;;;5088921;28;20051;-45
2023/12/31 03:44:28;;;;;;;3.70;2.00;;;7.90;99.90;;;;;;5089784;28;20524;-45
2023/12/31 03:46:53;;;;;;;3.08;2.00;;;7.90;99.90;;;;;;5088589;28;20481;-45
2023/12/31 03:49:19;;;;;;;3.35;2.08;;;7.90;99.90;;;;;;5086839;28;20048;-45
2023/12/31 03:51:45;;;;;;;3.65;2.28;;;7.90;99.90;;;;;;5082392;28;20188;-44
2023/12/31 03:54:10;;;;;;;2.70;1.90;;;7.90;99.90;;;;;;5086246;28;20032;-45
2023/12/31 03:56:36;;;;;;;3.22;2.15;;;7.90;99.90;;;;;;5088704;28;20051;-47
2023/12/31 03:59:02;;;;;;;4.20;2.22;;;7.90;99.90;;;;;;5086126;28;20264;-46
2023/12/31 04:01:28;;;;;;;2.95;2.15;;;7.90;99.90;;;;;;5069416;28;20139;-46
2023/12/31 04:03:53;;;;;;;2.88;2.08;;;7.90;99.90;;;;;;5082949;28;20036;-45
2023/12/31 04:06:19;;;;;;;3.38;2.30;;;8.00;99.90;;;;;;5086755;28;20478;-46
2023/12/31 04:08:46;;;;;;;2.42;2.17;;;8.00;99.90;;;;;;5069194;28;20093;-46
2023/12/31 04:11:12;;;;;;;2.10;1.80;;;7.90;99.90;;;;;;5087150;28;20071;-45
2023/12/31 04:13:41;;;;;;;3.05;2.20;;;8.00;99.90;;;;;;5086725;28;20111;-46
2023/12/31 04:16:08;;;;;;;2.30;2.10;;;7.90;99.90;;;;;;5087622;28;20040;-45
2023/12/31 04:18:34;;;;;;;3.10;1.95;;;8.00;99.90;;;;;;5094641;28;20048;-46
2023/12/31 04:21:00;;;;;;;2.22;1.92;;;8.00;99.90;;;;;;5086581;28;20062;-48
2023/12/31 04:23:25;;;;;;;3.40;2.35;;;7.90;99.90;;;;;;5089515;28;20069;-45
2023/12/31 04:25:51;;;;;;;3.67;2.17;;;8.00;99.90;;;;;;5087841;28;20036;-45
2023/12/31 04:28:17;;;;;;;2.40;2.20;;;7.90;99.90;;;;;;5089734;28;20040;-45
2023/12/31 04:30:43;;;;;;;3.38;1.90;;;7.90;99.90;;;;;;5087800;28;20501;-45
2023/12/31 04:33:08;;;;;;;4.05;2.28;;;7.90;99.90;;;;;;5090606;28;20035;-45
2023/12/31 04:35:34;;;;;;;6.25;2.60;;;7.90;99.90;;;;;;5087903;28;20397;-45
2023/12/31 04:38:00;;;;;;;3.92;2.60;;;7.90;99.90;;;;;;5089291;28;20036;-45
2023/12/31 04:40:26;;;;;;;3.95;2.60;;;7.90;99.90;;;;;;5082690;28;20406;-46
2023/12/31 04:42:51;;;;;;;3.40;2.40;;;7.90;99.90;;;;;;5076553;28;20086;-46
2023/12/31 04:45:17;;;;;;;3.08;2.40;;;7.90;99.90;;;;;;5085098;28;20117;-45
2023/12/31 04:47:43;;;;;;;2.53;2.20;;;7.90;99.90;;;;;;5079220;28;20042;-45
2023/12/31 04:50:08;;;;;;;2.85;2.20;;;7.90;99.90;;;;;;5083673;28;20042;-45
2023/12/31 04:52:34;;;;;;;2.75;2.30;;;7.90;99.90;;;;;;5084369;28;20044;-46
2023/12/31 04:55:00;;;;;;;2.60;2.08;;;7.80;99.90;;;;;;5087252;28;20122;-45
2023/12/31 04:57:25;;;;;;;4.72;2.75;;;7.90;99.90;;;;;;5087948;28;20093;-45
2023/12/31 04:59:51;;;;;;;3.55;2.33;;;7.90;99.90;;;;;;5087012;28;20132;-44
2023/12/31 05:02:17;;;;;;;4.28;2.30;;;7.80;99.90;;;;;;5083453;28;20777;-48
2023/12/31 05:04:43;;;;;;;2.72;2.40;;;7.80;99.90;;;;;;5083575;28;20048;-46
2023/12/31 05:07:09;;;;;;;3.80;2.35;;;7.80;99.90;;;;;;5081944;28;20489;-46
2023/12/31 05:09:35;;;;;;;3.10;2.60;;;7.80;99.90;;;;;;5071891;28;20052;-45
2023/12/31 05:12:01;;;;;;;2.50;2.30;;;7.90;99.90;;;;;;5086018;28;20135;-45
2023/12/31 05:14:27;;;;;;;4.38;2.25;;;7.80;99.90;;;;;;5085012;28;20123;-47
2023/12/31 05:16:52;;;;;;;3.92;2.47;;;7.80;99.90;;;;;;5085686;28;20102;-45
2023/12/31 05:19:18;;;;;;;3.30;2.58;;;7.90;99.90;;;;;;5088673;28;20059;-48
2023/12/31 05:21:43;;;;;;;4.28;2.78;;;7.80;99.90;;;;;;5091510;28;20040;-45
2023/12/31 05:24:09;;;;;;;6.18;2.78;;;7.90;99.90;;;;;;5093024;28;20187;-45
2023/12/31 05:26:35;;;;;;;3.22;2.60;;;7.80;99.90;;;;;;5094423;28;20036;-45
2023/12/31 05:29:01;;;;;;;2.88;2.47;;;7.80;99.90;;;;;;5093277;28;20032;-46
2023/12/31 05:31:27;;;;;;;3.10;2.60;;;7.80;99.90;;;;;;5087924;28;20468;-49
2023/12/31 05:33:52;;;;;;;2.80;2.60;;;7.80;99.90;;;;;;5087815;28;20048;-45
2023/12/31 05:36:18;;;;;;;3.75;2.85;;;7.80;99.90;;;;;;5091208;28;20119;-46
2023/12/31 05:38:43;;;;;;;4.07;3.00;;;7.80;99.90;;;;;;5093392;28;20117;-46
2023/12/31 05:41:09;;;;;;;5.53;2.78;;;7.80;99.90;;;;;;5094335;28;20040;-47
2023/12/31 05:43:35;;;;;;;3.50;3.00;;;7.90;99.90;;;;;;5087301;28;20552;-46
2023/12/31 05:46:01;;;;;;;3.60;2.70;;;7.80;99.90;;;;;;5094062;28;20044;-47
2023/12/31 05:48:27;;;;;;;3.08;2.72;;;7.90;99.90;;;;;;5089044;28;20040;-45
2023/12/31 05:50:53;;;;;;;2.78;2.58;;;7.90;99.90;;;;;;5090540;28;20043;-45
2023/12/31 05:53:19;;;;;;;3.85;2.75;;;7.90;99.90;;;;;;5087465;28;20509;-45
2023/12/31 05:55:46;;;;;;;4.35;2.90;;;7.90;99.90;;;;;;5090945;28;20169;-45
2023/12/31 05:58:11;;;;;;;3.22;2.92;;;7.90;99.90;;;;;;5092417;28;20040;-44
2023/12/31 06:00:37;;;;;;;3.45;2.53;;;7.90;99.90;;;;;;5089997;28;20059;-44
2023/12/31 06:03:03;;;;;;;3.05;2.63;;;7.90;99.90;;;;;;5091334;28;20072;-46
2023/12/31 06:05:28;;;;;;;3.50;2.95;;;7.90;99.90;;;;;;5089416;28;20195;-46
2023/12/31 06:07:54;;;;;;;3.95;2.67;;;7.80;99.90;;;;;;5093525;28;20047;-45
2023/12/31 06:10:20;;;;;;;3.55;3.10;;;7.80;99.90;;;;;;5088630;28;20036;-45
2023/12/31 06:12:45;;;;;;;4.75;2.65;;;7.80;99.90;;;;;;5089843;28;20032;-45
2023/12/31 06:15:11;;;;;;;3.60;2.60;;;7.90;99.90;;;;;;5088344;28;20047;-45
2023/12/31 06:17:38;;;;;;;3.95;2.75;;;7.80;99.90;;;;;;5093582;28;20440;-45
2023/12/31 06:20:05;;;;;;;4.00;2.65;;;7.90;99.90;;;;;;5091342;28;20040;-45
2023/12/31 06:22:30;;;;;;;3.35;2.67;;;7.90;99.90;;;;;;5085770;28;20159;-45
2023/12/31 06:24:56;;;;;;;4.63;2.72;;;7.90;99.90;;;;;;5092088;28;20083;-46
2023/12/31 06:27:22;;;;;;;2.90;2.60;;;7.90;99.90;;;;;;5093246;28;20071;-44
2023/12/31 06:29:50;;;;;;;3.85;2.90;;;7.90;99.90;;;;;;5089809;28;20123;-45
2023/12/31 06:32:16;;;;;;;3.50;2.80;;;7.90;99.90;;;;;;5090304;28;20409;-46
2023/12/31 06:34:42;;;;;;;3.00;2.70;;;7.90;99.90;;;;;;5071872;28;20314;-46
2023/12/31 06:37:07;;;;;;;5.78;2.85;;;7.90;99.90;;;;;;5082844;28;20504;-46
2023/12/31 06:39:33;;;;;;;2.65;2.45;;;7.90;99.90;;;;;;5088028;28;20044;-47
2023/12/31 06:41:58;;;;;;;3.08;2.63;;;8.00;99.90;;;;;;5069407;28;20071;-47
2023/12/31 06:44:24;;;;;;;3.92;2.70;;;8.00;99.90;;;;;;5090384;28;20082;-46
2023/12/31 06:46:51;;;;;;;3.55;2.85;;;8.00;99.90;;;;;;5082351;28;20126;-46
2023/12/31 06:49:17;;;;;;;3.13;2.83;;;8.00;99.90;;;;;;5088351;28;20048;-48
2023/12/31 06:51:43;;;;;;;3.50;2.50;;;8.00;99.90;;;;;;5085091;28;20032;-48
2023/12/31 06:54:08;;;;;;;2.90;2.60;;;8.00;99.90;;;;;;5086946;28;20036;-46
2023/12/31 06:56:34;;;;;;;3.83;2.88;;;8.00;99.90;;;;;;5085356;28;20401;-45
2023/12/31 06:59:00;;;;;;;2.85;2.60;;;8.00;99.90;;;;;;5086756;28;20047;-45
2023/12/31 07:01:25;;;;;;;3.47;2.67;;;8.00;99.90;;;;;;5088594;28;20048;-46
2023/12/31 07:03:51;;;;;;;4.47;2.70;;;8.00;99.90;;;;;;5091080;28;20401;-49
2023/12/31 07:06:16;;;;;;;3.95;2.63;;;8.00;99.90;;;;;;5090114;28;20040;-45
2023/12/31 07:08:42;;;;;;;2.50;2.30;;;8.00;99.90;;;;;;5071883;28;20052;-46
2023/12/31 07:11:08;;;;;;;3.42;3.10;;;8.00;99.90;;;;;;5087270;28;20047;-44
2023/12/31 07:13:33;;;;;;;3.00;2.67;;;8.00;99.90;;;;;;5089826;28;20388;-46
2023/12/31 07:16:00;;;;;;;3.78;2.70;;;8.10;99.90;;;;;;5088678;28;22690;-45
2023/12/31 07:18:25;;;;;;;3.15;2.80;;;8.10;99.90;;;;;;5090081;28;20040;-45
2023/12/31 07:20:54;;;;;;;3.90;2.90;;;8.10;99.90;;;;;;5089340;28;20689;-44
2023/12/31 07:23:20;;;;;;;3.35;2.53;;;8.10;99.90;;;;;;5088051;28;20062;-45
2023/12/31 07:25:46;;;;;;;3.50;3.00;;;8.20;99.90;;;;;;5085505;28;20524;-46
2023/12/31 07:28:11;;;;;;;4.20;2.90;;;8.10;99.90;;;;;;5089446;28;20710;-45
2023/12/31 07:30:39;;;;;;;2.70;2.47;;;8.20;99.90;;;;;;5086138;28;20040;-46
2023/12/31 07:33:05;;;;;;;3.00;2.75;;;8.20;99.90;;;;;;5088375;28;20040;-45
2023/12/31 07:35:34;;;;;;;3.53;2.63;;;8.30;99.90;;;;;;5088104;28;20081;-45
2023/12/31 07:38:00;;;;;;;3.83;2.88;;;8.30;99.90;;;;;;5087270;28;20067;-45
2023/12/31 07:40:26;;;;;;;3.58;2.75;;;8.30;99.90;;;;;;5080385;28;20717;-45
2023/12/31 07:42:52;;;;;;;3.38;2.58;;;8.40;99.90;;;;;;5085188;28;20072;-44
2023/12/31 07:45:17;;;;;;;3.00;2.70;;;8.40;99.90;;;;;;5086946;28;20043;-45
2023/12/31 07:47:43;;;;;;;3.75;2.53;;;8.40;99.90;;;;;;5087168;28;20040;-46
2023/12/31 07:50:09;;;;;;;2.70;2.50;;;8.40;99.90;;;;;;5065871;28;20389;-45
2023/12/31 07:52:34;;;;;;;3.38;2.63;;;8.40;99.90;;;;;;5086890;28;20092;-46
2023/12/31 07:55:02;;;;;;;2.92;2.70;;;8.50;99.90;;;;;;5071343;28;20047;-46
2023/12/31 07:57:28;;;;;;;3.63;2.70;;;8.50;99.90;;;;;;5087509;28;20522;-46
2023/12/31 07:59:54;;;;;;;3.17;2.88;;;8.50;99.90;;;;;;5086949;28;20048;-46
2023/12/31 08:02:20;;;;;;;2.95;2.65;;;8.50;99.90;;;;;;5084006;28;20055;-46
2023/12/31 08:04:45;;;;;;;4.30;2.85;;;8.50;99.90;;;;;;5072522;28;20069;-46
2023/12/31 08:07:11;;;;;;;4.07;2.80;;;8.50;99.90;;;;;;5089189;28;20032;-45
2023/12/31 08:09:36;;;;;;;4.00;2.88;;;8.40;99.90;;;;;;5089278;28;20126;-47
2023/12/31 08:12:02;;;;;;;3.45;2.80;;;8.40;99.90;;;;;;5069670;28;20055;-46
2023/12/31 08:14:28;;;;;;;3.10;2.80;;;8.40;99.90;;;;;;5075815;28;20048;-45
2023/12/31 08:16:54;;;;;;;2.88;2.40;;;8.40;99.90;;;;;;5092644;28;20123;-45
2023/12/31 08:19:19;;;;;;;3.25;2.58;;;8.40;99.90;;;;;;5089500;28;20044;-45
2023/12/31 08:21:45;;;;;;;2.70;2.50;;;8.30;99.90;;;;;;5090340;28;20064;-45
2023/12/31 08:24:14;;;;;;;3.58;2.55;;;8.30;99.90;;;;;;5091423;28;20071;-48
2023/12/31 08:26:40;;;;;;;3.20;2.80;;;8.40;99.90;;;;;;5095515;28;20047;-46
2023/12/31 08:29:05;;;;;;;2.80;2.40;;;8.40;99.90;;;;;;5092348;28;20040;-45
2023/12/31 08:31:31;;;;;;;3.08;2.60;;;8.40;99.90;;;;;;5091657;28;20044;-46
2023/12/31 08:33:56;;;;;;;3.85;2.47;;;8.40;99.90;;;;;;5091551;28;20040;-47
2023/12/31 08:36:22;;;;;;;2.50;2.30;;;8.40;99.90;;;;;;5090822;28;20044;-45
2023/12/31 08:38:48;;;;;;;3.75;2.70;;;8.30;99.90;;;;;;5078192;28;20398;-46
2023/12/31 08:41:13;;;;;;;3.50;2.47;;;8.40;99.90;;;;;;5091688;28;20185;-46
2023/12/31 08:43:39;;;;;;;3.22;2.50;;;8.40;99.90;;;;;;5081021;28;20054;-47
2023/12/31 08:46:05;;;;;;;3.78;2.70;;;8.40;99.90;;;;;;5092181;28;20039;-46
2023/12/31 08:48:30;;;;;;;3.58;2.42;;;8.40;99.90;;;;;;5091335;28;20043;-45
2023/12/31 08:50:56;;;;;;;2.80;2.47;;;8.50;99.90;;;;;;5091600;28;20036;-47
2023/12/31 08:53:21;;;;;;;3.25;2.80;;;8.40;99.90;;;;;;5090547;28;20059;-45
2023/12/31 08:55:51;;;;;;;5.40;2.45;;;8.40;99.90;;;;;;5090385;28;20047;-45
2023/12/31 08:58:17;;;;;;;3.10;2.50;;;8.40;99.90;;;;;;5091308;28;20084;-45
2023/12/31 09:00:43;;;;;;;5.15;2.65;;;8.50;99.90;;;;;;5091163;28;20039;-45
2023/12/31 09:03:08;;;;;;;3.30;2.50;;;8.50;99.90;;;;;;5091446;28;20063;-45
2023/12/31 09:05:34;;;;;;;3.25;2.63;;;8.60;99.90;;;;;;5072400;28;20040;-45
2023/12/31 09:08:02;;;;;;;2.97;2.67;;;8.60;99.90;;;;;;5090804;28;20341;-46
2023/12/31 09:10:27;;;;;;;2.97;2.50;;;8.60;99.90;;;;;;5088885;28;20572;-45
2023/12/31 09:12:53;;;;;;;4.43;2.65;;;8.70;99.90;;;;;;5071948;28;20123;-45
2023/12/31 09:15:19;;;;;;;3.30;3.00;;;8.80;99.90;;;;;;5081689;28;20050;-45
2023/12/31 09:17:45;;;;;;;2.95;2.40;;;8.80;99.90;;;;;;5090035;28;20400;-45
2023/12/31 09:20:11;;;;;;;4.00;3.00;;;8.90;99.90;;;;;;5081750;28;20438;-45
2023/12/31 09:22:36;;;;;;;3.60;2.75;;;8.90;99.90;;;;;;5056926;28;20051;-45
2023/12/31 09:25:04;;;;;;;2.85;2.42;;;9.00;99.90;;;;;;5073459;28;20075;-46
2023/12/31 09:27:29;;;;;;;2.72;2.50;;;9.10;99.90;;;;;;5089276;28;20040;-46
2023/12/31 09:29:55;;;;;;;2.53;2.33;;;9.10;99.90;;;;;;5085351;28;20042;-49
2023/12/31 09:32:21;;;;;;;4.85;3.95;;;9.10;99.90;;;;;;5092133;28;20047;-46
2023/12/31 09:34:47;;;;;;;4.30;3.63;;;9.20;99.90;;;;;;5090982;28;20070;-45
2023/12/31 09:37:18;;;;;;;3.60;2.95;;;9.20;99.90;;;;;;5091674;28;20035;-46
2023/12/31 09:39:43;;;;;;;4.57;3.28;;;9.20;99.90;;;;;;5091233;28;20053;-46
2023/12/31 09:42:14;;;;;;;3.40;2.92;;;9.30;99.90;;;;;;5084576;28;20040;-45
2023/12/31 09:44:41;;;;;;;4.00;3.60;;;9.30;99.90;;;;;;5086431;28;20040;-47
2023/12/31 09:47:08;;;;;;;4.32;3.40;;;9.40;99.90;;;;;;5091699;28;20048;-45
2023/12/31 09:49:35;;;;;;;3.45;2.90;;;9.60;99.90;;;;;;5091746;28;20515;-46
2023/12/31 09:52:04;;;;;;;3.28;2.97;;;9.70;99.90;;;;;;5073941;28;20044;-46
2023/12/31 09:54:32;;;;;;;3.63;2.80;;;9.70;99.90;;;;;;5090482;28;20040;-45
2023/12/31 09:56:58;;;;;;;;;;;9.60;99.90;;;;;;5073403;28;20048;-47
2023/12/31 09:59:27;;;;;;;3.30;3.00;;;9.60;99.90;;;;;;5091776;28;19923;-45
2023/12/31 10:02:03;;;;;;;3.72;2.70;;;9.60;99.90;;;;;;5084801;28;20040;-51
2023/12/31 10:04:30;;;;;;;3.15;2.70;;;9.60;99.90;;;;;;5083950;28;20482;-46
2023/12/31 10:06:56;;;;;;;3.20;2.90;;;9.60;99.90;;;;;;5086440;28;20047;-45
2023/12/31 10:09:27;;;;;;;4.47;3.97;;;9.70;99.90;;;;;;5095399;28;20047;-45
2023/12/31 10:11:54;;;;;;;3.35;3.03;;;9.70;99.90;;;;;;5095066;28;20416;-45
2023/12/31 10:14:21;;;;;;;3.73;2.90;;;9.70;99.90;;;;;;5095433;28;20446;-49
2023/12/31 10:16:47;;;;;;;3.08;2.40;;;9.80;99.90;;;;;;5077467;28;20624;-45
2023/12/31 10:19:16;;;;;;;3.25;2.63;;;9.90;99.90;;;;;;5093157;28;20051;-45
2023/12/31 10:21:42;;;;;;;3.20;2.80;;;;;;;;;;5093963;28;20106;-48
2023/12/31 10:24:08;;;;;;;3.58;2.63;;;10.10;99.90;;;;;;5087088;28;20040;-46
2023/12/31 10:26:35;;;;;;;4.80;2.75;;;10.20;99.90;;;;;;5089653;28;20381;-45
2023/12/31 10:29:01;;;;;;;3.22;2.92;;;10.40;99.90;;;;;;5094710;28;20097;-46
2023/12/31 10:31:27;;;;;;;2.75;2.55;;;10.50;99.90;;;;;;5094670;28;20406;-45
2023/12/31 10:33:52;;;;;;;3.80;2.70;;;10.50;99.90;;;;;;5094617;28;20032;-45
2023/12/31 10:36:25;;;;;;;3.38;2.70;;;10.60;99.90;;;;;;5092376;28;20074;-46
2023/12/31 10:38:51;;;;;;;3.00;2.70;;;10.50;99.90;;;;;;5092827;28;20122;-45
2023/12/31 10:41:25;;;;;;;3.03;2.75;;;10.50;99.90;;;;;;5092804;28;20044;-45
2023/12/31 10:43:52;;;;;;;4.40;2.90;;;10.50;99.90;;;;;;5092280;28;20036;-45
2023/12/31 10:46:19;;;;;;;3.53;3.00;;;10.50;99.90;;;;;;5094356;28;20556;-45
2023/12/31 10:49:10;;;;;;;4.35;2.90;;;10.50;99.90;;;;;;5094270;28;20047;-45
2023/12/31 10:51:39;;;;;;;4.13;3.10;;;10.50;99.90;;;;;;5086954;28;20044;-45
2023/12/31 10:54:08;;;;;;;4.30;3.00;;;10.50;99.90;;;;;;5091712;28;20508;-45
2023/12/31 10:56:35;;;;;;;3.10;2.80;;;10.40;99.90;;;;;;5075454;28;20111;-46
2023/12/31 10:59:01;;;;;;;2.65;2.45;;;10.50;99.90;;;;;;5093038;28;20036;-46
2023/12/31 11:01:27;;;;;;;4.30;2.80;;;10.50;99.90;;;;;;5086354;28;20065;-46
2023/12/31 11:03:57;;;;;;;3.85;3.45;;;10.50;99.90;;;;;;5093043;28;20119;-47
2023/12/31 11:06:27;;;;;;;4.05;2.85;;;10.50;99.90;;;;;;5075342;28;20032;-46
2023/12/31 11:08:54;;;;;;;3.72;2.78;;;10.50;99.90;;;;;;5093174;28;20528;-46
2023/12/31 11:11:20;;;;;;;4.63;2.65;;;10.50;99.90;;;;;;5093163;28;20040;-49
2023/12/31 11:13:55;;;;;;;4.20;3.03;;;10.50;99.90;;;;;;5093100;28;20039;-44
2023/12/31 11:16:27;;;;;;;3.03;2.72;;;10.40;99.90;;;;;;5092805;28;20442;-45
2023/12/31 11:19:11;;;;;;;4.72;3.17;;;10.40;99.90;;;;;;5092209;28;20040;-46
2023/12/31 11:22:04;;;;;;;5.60;3.80;;;10.30;99.90;;;;;;5093523;28;20177;-46
2023/12/31 11:24:31;;;;;;;5.43;3.20;;;10.20;99.90;;;;;;5092719;28;20386;-45
2023/12/31 11:27:15;;;;;;;5.72;3.80;;;10.10;99.90;;;;;;5091299;28;20070;-45
2023/12/31 11:29:43;;;;;;;3.70;3.28;;;10.00;99.90;;;;;;5093670;28;20044;-46
2023/12/31 11:32:09;;;;;;;3.00;2.70;;;10.10;99.90;;;;;;5092915;28;20139;-45
2023/12/31 11:34:37;;;;;;;3.88;2.40;;;10.20;99.90;;;;;;5092737;28;20052;-47
2023/12/31 11:37:06;;;;;;;3.13;2.60;;;10.20;99.90;;;;;;5094322;28;20581;-48
2023/12/31 11:39:32;;;;;;;3.67;2.42;;;10.20;99.90;;;;;;5094131;28;20425;-46
2023/12/31 11:42:03;;;;;;;3.28;2.90;;;10.20;99.90;;;;;;5090066;28;20035;-46
2023/12/31 11:44:40;;;;;;;3.33;2.70;;;10.20;99.90;;;;;;5082820;28;20098;-48
2023/12/31 11:47:16;;;;;;;2.75;2.50;;;10.20;99.90;;;;;;5081485;28;20039;-48
2023/12/31 11:49:52;;;;;;;3.00;2.70;;;10.10;99.90;;;;;;5086212;28;20058;-47
2023/12/31 11:52:31;;;;;;;2.85;2.65;;;10.10;99.90;;;;;;5087053;28;20116;-47
2023/12/31 11:54:58;;;;;;;2.90;2.60;;;10.00;99.90;;;;;;5083828;28;20472;-45
2023/12/31 11:57:25;;;;;;;4.13;2.90;;;10.00;99.90;;;;;;5076501;28;20101;-46
2023/12/31 11:59:53;;;;;;;3.47;3.17;;;10.00;99.90;;;;;;5069968;28;20565;-48
2023/12/31 12:02:18;;;;;;;;;;;10.00;99.90;;;;;;5076003;28;20040;-45
2023/12/31 12:04:44;;;;;;;3.17;2.90;;;10.00;99.90;;;;;;5086810;28;20429;-46
2023/12/31 12:07:10;;;;;;;3.00;2.50;;;9.90;99.90;;;;;;5092915;28;20150;-46
2023/12/31 12:09:36;;;;;;;3.17;2.83;;;9.90;99.90;;;;;;5090125;28;20036;-46
2023/12/31 12:12:06;;;;;;;3.30;2.70;;;9.90;99.90;;;;;;5092740;28;20055;-44
2023/12/31 12:14:33;;;;;;;2.97;2.20;;;10.00;99.90;;;;;;5074062;28;20036;-45
2023/12/31 12:17:00;;;;;;;2.00;1.80;;;10.00;99.90;;;;;;5091677;28;20066;-45
2023/12/31 12:19:26;;;;;;;2.65;1.92;;;10.10;99.90;;;;;;5073132;28;20055;-45
2023/12/31 12:21:53;;;;;;;1.77;1.65;;;10.10;99.90;;;;;;5083747;28;20047;-46
2023/12/31 12:24:19;;;;;;;3.50;1.85;;;10.20;99.90;;;;;;5092722;28;20093;-45
2023/12/31 12:26:48;;;;;;;2.10;1.50;;;10.20;99.90;;;;;;5093046;28;20040;-45
2023/12/31 12:29:15;;;;;;;3.10;1.75;;;10.20;99.90;;;;;;5092721;28;20173;-47
2023/12/31 12:31:45;;;;;;;1.90;1.63;;;10.20;99.90;;;;;;5093047;28;20044;-45
2023/12/31 12:34:13;;;;;;;2.30;1.70;;;10.20;99.90;;;;;;5089085;28;20663;-47
2023/12/31 12:36:38;;;;;;;1.75;1.42;;;10.10;99.90;;;;;;5072148;28;20115;-45
2023/12/31 12:39:05;;;;;;;2.72;1.77;;;10.10;99.90;;;;;;5076689;28;20123;-45
2023/12/31 12:41:32;;;;;;;2.60;1.80;;;10.00;99.90;;;;;;5074233;28;20048;-47
2023/12/31 12:43:59;;;;;;;2.30;2.10;;;10.00;99.90;;;;;;5073368;28;20139;-45
2023/12/31 12:46:32;;;;;;;2.10;1.73;;;9.90;99.90;;;;;;5088426;28;20153;-45
2023/12/31 12:48:58;;;;;;;2.88;1.38;;;9.80;99.90;;;;;;5092465;28;20270;-48
2023/12/31 12:51:24;;;;;;;1.80;1.70;;;9.70;99.90;;;;;;5090168;28;20100;-46